Time;durP1;ratioP1;P1;durP2;ratioP2;P2;SDS_P1;SDS_P2;PMS_P1;PMS_P2;Temp;Humidity;BMP_temperature;BMP_pressure;BME280_temperature;BME280_humidity;BME280_pressure;Samples;Min_cycle;Max_cycle;Signal;HPM_P1;HPM_P2
2022/12/27 00:03:00;;;;;;;15.90;13.65;;;22.70;81.60;;;;;;6277632;27;88940;-71
2022/12/27 00:06:07;;;;;;;15.63;13.90;;;22.70;81.50;;;;;;6267634;27;89420;-71
2022/12/27 00:09:09;;;;;;;16.50;13.32;;;22.70;81.80;;;;;;6280612;27;89426;-71
2022/12/27 00:12:11;;;;;;;15.65;14.00;;;22.70;82.20;;;;;;6268318;27;88409;-71
2022/12/27 00:15:15;;;;;;;17.50;13.40;;;22.70;81.60;;;;;;6280202;27;89065;-71
2022/12/27 00:18:17;;;;;;;14.57;12.95;;;22.70;81.50;;;;;;6272846;27;89324;-71
2022/12/27 00:21:20;;;;;;;14.00;12.57;;;22.70;81.50;;;;;;6275553;27;90119;-71
2022/12/27 00:24:22;;;;;;;15.43;12.57;;;22.60;81.30;;;;;;6280376;27;89387;-71
2022/12/27 00:27:24;;;;;;;13.93;12.43;;;22.60;81.30;;;;;;6279378;27;89102;-71
2022/12/27 00:30:28;;;;;;;13.52;12.13;;;22.60;81.40;;;;;;6280883;27;89072;-70
2022/12/27 00:33:32;;;;;;;14.10;12.35;;;22.60;81.50;;;;;;6281898;27;89226;-70
2022/12/27 00:36:34;;;;;;;13.82;12.18;;;22.60;81.40;;;;;;6274863;27;89115;-71
2022/12/27 00:39:36;;;;;;;13.18;11.70;;;22.60;81.60;;;;;;6279109;27;89105;-71
2022/12/27 00:42:38;;;;;;;13.02;11.57;;;22.60;81.80;;;;;;6270303;27;88305;-71
2022/12/27 00:45:43;;;;;;;12.93;11.63;;;22.60;81.60;;;;;;6275898;27;89098;-72
2022/12/27 00:48:45;;;;;;;12.02;10.75;;;22.60;81.60;;;;;;6270314;27;89022;-70
2022/12/27 00:51:47;;;;;;;14.00;11.00;;;22.50;81.60;;;;;;6259344;27;88947;-72
2022/12/27 00:54:49;;;;;;;11.95;10.65;;;22.50;81.50;;;;;;6279602;27;89361;-72
2022/12/27 00:57:51;;;;;;;12.32;10.82;;;22.50;81.40;;;;;;6270468;27;89069;-71
2022/12/27 01:00:54;;;;;;;12.20;10.90;;;22.50;81.50;;;;;;6274496;27;89066;-71
2022/12/27 01:03:57;;;;;;;11.98;10.57;;;22.50;81.60;;;;;;6271061;27;89090;-71
2022/12/27 01:06:59;;;;;;;11.02;9.93;;;22.50;81.50;;;;;;6278295;27;89399;-71
2022/12/27 01:10:01;;;;;;;11.05;9.73;;;22.50;81.60;;;;;;6280132;27;88311;-72
2022/12/27 01:13:04;;;;;;;10.85;9.75;;;22.50;81.70;;;;;;6280669;27;88393;-71
2022/12/27 01:16:12;;;;;;;10.77;9.45;;;22.40;81.60;;;;;;6277734;27;89553;-71
2022/12/27 01:19:14;;;;;;;10.82;9.68;;;22.50;81.60;;;;;;6280076;27;89446;-71
2022/12/27 01:22:16;;;;;;;10.40;9.02;;;22.50;81.50;;;;;;6280382;27;88937;-71
2022/12/27 01:25:18;;;;;;;10.63;9.13;;;22.40;81.50;;;;;;6273198;27;89091;-71
2022/12/27 01:28:20;;;;;;;10.30;9.20;;;22.40;81.50;;;;;;6279030;27;87935;-71
2022/12/27 01:31:27;;;;;;;10.38;9.05;;;22.40;81.50;;;;;;6279448;27;89185;-71
2022/12/27 01:34:29;;;;;;;9.80;8.77;;;22.30;81.40;;;;;;6281047;27;89055;-71
2022/12/27 01:37:31;;;;;;;9.77;8.32;;;22.40;81.20;;;;;;6274518;27;89077;-71
2022/12/27 01:40:35;;;;;;;9.05;8.15;;;22.40;81.30;;;;;;6267426;27;87929;-71
2022/12/27 01:43:37;;;;;;;10.90;8.52;;;22.40;81.50;;;;;;6270688;27;88342;-71
2022/12/27 01:46:40;;;;;;;8.82;7.93;;;22.40;81.40;;;;;;6266202;27;87845;-71
2022/12/27 01:49:51;;;;;;;8.95;7.65;;;22.40;81.40;;;;;;6279671;27;89066;-71
2022/12/27 01:53:00;;;;;;;8.50;7.63;;;22.40;81.30;;;;;;6271934;27;89992;-71
2022/12/27 01:56:04;;;;;;;8.73;7.82;;;22.30;81.30;;;;;;6279295;27;89356;-71
2022/12/27 01:59:09;;;;;;;8.57;7.68;;;22.30;81.30;;;;;;6278884;27;89120;-71
2022/12/27 02:02:13;;;;;;;8.25;7.38;;;22.30;81.10;;;;;;6272648;27;89041;-71
2022/12/27 02:05:18;;;;;;;8.25;7.32;;;22.30;81.20;;;;;;6279466;27;89088;-71
2022/12/27 02:08:29;;;;;;;7.78;6.97;;;22.30;81.20;;;;;;6282597;27;89111;-71
2022/12/27 02:11:54;;;;;;;7.53;6.72;;;22.30;81.20;;;;;;6283791;27;89140;-71
2022/12/27 02:14:56;;;;;;;7.50;6.68;;;22.30;82.20;;;;;;6282033;27;88375;-71
2022/12/27 02:17:59;;;;;;;7.57;6.78;;;22.30;81.30;;;;;;6283560;27;89119;-72
2022/12/27 02:21:23;;;;;;;6.82;6.03;;;22.30;81.30;;;;;;6283177;27;88401;-71
2022/12/27 02:24:53;;;;;;;6.97;6.28;;;22.30;81.20;;;;;;6279410;27;90007;-71
2022/12/27 02:28:07;;;;;;;7.10;6.10;;;22.20;81.20;;;;;;6274066;27;89056;-71
2022/12/27 02:31:22;;;;;;;7.10;6.20;;;22.20;81.00;;;;;;6280463;27;89308;-71
2022/12/27 02:34:27;;;;;;;6.60;5.90;;;22.30;81.20;;;;;;6273922;27;89154;-70
2022/12/27 02:37:32;;;;;;;6.65;5.93;;;22.30;81.30;;;;;;6277546;27;89127;-70
2022/12/27 02:54:28;;;;;;;6.10;4.80;;;22.20;78.70;;;;;;6269030;27;87296;-71
2022/12/27 02:57:39;;;;;;;5.07;4.57;;;22.20;79.30;;;;;;6279446;27;90125;-71
2022/12/27 03:04:26;;;;;;;5.07;4.57;;;22.20;79.70;;;;;;6278583;27;87302;-71
2022/12/27 03:07:37;;;;;;;5.85;4.28;;;22.20;79.80;;;;;;6272992;27;89086;-70
2022/12/27 03:17:35;;;;;;;5.05;4.18;;;22.10;80.00;;;;;;6276476;27;88524;-70
2022/12/27 03:27:27;;;;;;;4.35;3.80;;;22.10;80.10;;;;;;6282501;27;87297;-71
2022/12/27 03:33:50;;;;;;;3.40;3.10;;;22.10;80.00;;;;;;6282698;27;87228;-70
2022/12/27 03:40:22;;;;;;;3.63;3.33;;;22.10;78.80;;;;;;6270670;27;87000;-70
2022/12/27 03:43:23;;;;;;;4.00;3.42;;;22.00;79.20;;;;;;6281403;27;89113;-70
2022/12/27 03:46:35;;;;;;;3.85;3.22;;;22.00;79.40;;;;;;6280754;27;89136;-70
2022/12/27 03:49:43;;;;;;;3.88;3.33;;;22.00;79.50;;;;;;6280737;27;89196;-71
2022/12/27 03:52:51;;;;;;;3.75;3.20;;;22.00;79.50;;;;;;6281885;27;87253;-71
2022/12/27 03:55:53;;;;;;;3.40;3.10;;;22.00;79.60;;;;;;6282338;27;89307;-71
2022/12/27 03:58:57;;;;;;;5.35;3.30;;;22.00;79.90;;;;;;6276729;27;89175;-70
2022/12/27 04:01:59;;;;;;;3.55;3.25;;;22.00;79.80;;;;;;6272827;27;90020;-71
2022/12/27 04:05:01;;;;;;;4.25;3.25;;;22.00;79.70;;;;;;6281120;27;89205;-70
2022/12/27 04:34:44;;;;;;;2.70;2.50;;;21.90;79.30;;;;;;6273079;27;88235;-70
2022/12/27 04:37:47;;;;;;;2.95;2.33;;;22.00;79.40;;;;;;6261554;27;89101;-71
2022/12/27 04:57:37;;;;;;;3.00;2.10;;;22.10;78.90;;;;;;6278507;27;87913;-71
2022/12/27 05:04:00;;;;;;;2.40;2.20;;;22.10;78.60;;;;;;6272137;27;88337;-70
2022/12/27 05:13:58;;;;;;;3.22;2.33;;;22.10;78.60;;;;;;6272425;27;89963;-71
2022/12/27 05:14:00;;;;;;;2.20;1.95;;;22.20;78.40;;;;;;6243904;27;87846;-71
2022/12/27 05:17:02;;;;;;;2.33;1.90;;;22.20;78.30;;;;;;6279133;27;89133;-70
2022/12/27 05:20:05;;;;;;;2.20;2.00;;;22.20;78.30;;;;;;6280867;27;89074;-70
2022/12/27 05:26:29;;;;;;;2.92;1.90;;;22.20;78.30;;;;;;6281027;27;87311;-70
2022/12/27 05:29:34;;;;;;;2.10;1.90;;;22.20;78.20;;;;;;6281278;27;88405;-69
2022/12/27 05:32:36;;;;;;;1.98;1.80;;;22.20;78.20;;;;;;6280668;27;87968;-71
2022/12/27 05:35:39;;;;;;;2.45;2.05;;;22.20;78.30;;;;;;6273612;27;89114;-71
2022/12/27 05:38:41;;;;;;;2.30;2.00;;;22.20;78.30;;;;;;6283053;27;90143;-71
2022/12/27 05:41:43;;;;;;;2.53;2.00;;;22.20;78.20;;;;;;6270936;27;89402;-71
2022/12/27 05:44:47;;;;;;;2.47;2.00;;;22.20;78.30;;;;;;6281418;27;89457;-70
2022/12/27 05:47:49;;;;;;;2.25;2.05;;;22.20;78.30;;;;;;6283023;27;89369;-70
2022/12/27 05:50:51;;;;;;;3.45;1.88;;;22.20;78.20;;;;;;6285088;27;88002;-71
2022/12/27 05:53:53;;;;;;;2.15;1.95;;;22.20;78.20;;;;;;6285391;27;89313;-71
2022/12/27 05:56:55;;;;;;;2.03;1.70;;;22.20;79.10;;;;;;6282513;27;88023;-71
2022/12/27 05:59:58;;;;;;;1.83;1.70;;;22.20;78.10;;;;;;6278337;27;88791;-71
2022/12/27 06:03:02;;;;;;;2.10;1.90;;;22.20;78.10;;;;;;6280462;27;89350;-71
2022/12/27 06:06:05;;;;;;;1.85;1.67;;;22.20;78.20;;;;;;6280159;27;89445;-70
2022/12/27 06:09:07;;;;;;;2.67;1.80;;;22.20;78.10;;;;;;6277476;27;89733;-70
2022/12/27 06:12:09;;;;;;;1.83;1.48;;;22.20;78.10;;;;;;6282648;27;89095;-71
2022/12/27 06:15:12;;;;;;;2.85;2.00;;;22.20;78.10;;;;;;6282782;27;89061;-71
2022/12/27 06:18:14;;;;;;;2.13;1.80;;;22.20;78.10;;;;;;6282598;27;89138;-71
2022/12/27 06:21:18;;;;;;;2.03;1.80;;;22.20;78.00;;;;;;6284137;27;89047;-71
2022/12/27 06:24:20;;;;;;;2.10;1.65;;;22.20;77.90;;;;;;6284296;27;89059;-71
2022/12/27 06:27:22;;;;;;;1.67;1.50;;;22.20;77.90;;;;;;6281613;27;89163;-70
2022/12/27 06:30:26;;;;;;;2.40;1.70;;;22.20;77.80;;;;;;6283412;27;88346;-71
2022/12/27 06:33:28;;;;;;;2.38;1.70;;;22.20;78.70;;;;;;6278581;27;89026;-71
2022/12/27 06:36:31;;;;;;;2.22;1.65;;;22.20;77.70;;;;;;6275597;27;89071;-71
2022/12/27 06:39:33;;;;;;;2.38;1.70;;;22.20;77.70;;;;;;6269503;27;89925;-71
2022/12/27 06:42:35;;;;;;;1.80;1.63;;;22.30;77.60;;;;;;6282049;27;88772;-71
2022/12/27 06:45:39;;;;;;;2.28;1.70;;;22.20;77.50;;;;;;6281248;27;88984;-71
2022/12/27 06:48:41;;;;;;;1.80;1.45;;;22.30;77.50;;;;;;6279771;27;88004;-70
2022/12/27 06:51:43;;;;;;;3.20;1.90;;;22.30;77.50;;;;;;6271772;27;89418;-71
2022/12/27 06:54:46;;;;;;;5.40;1.90;;;22.30;77.40;;;;;;6281619;27;89124;-71
2022/12/27 06:57:48;;;;;;;3.50;1.92;;;22.30;76.40;;;;;;6282575;27;89160;-71
2022/12/27 07:00:52;;;;;;;5.20;1.80;;;22.30;75.70;;;;;;6279983;27;88431;-72
2022/12/27 07:03:56;;;;;;;5.28;1.92;;;22.30;75.70;;;;;;6271809;27;89170;-71
2022/12/27 07:06:58;;;;;;;4.50;2.30;;;22.30;75.90;;;;;;6281097;27;88081;-71
2022/12/27 07:10:00;;;;;;;6.30;2.20;;;22.30;76.00;;;;;;6259925;27;90129;-71
2022/12/27 07:13:02;;;;;;;4.88;1.98;;;22.20;76.00;;;;;;6282311;27;88314;-71
2022/12/27 07:16:07;;;;;;;6.38;2.05;;;22.30;76.20;;;;;;6267883;27;89126;-69
2022/12/27 07:19:10;;;;;;;4.20;2.20;;;22.20;76.20;;;;;;6281535;27;88233;-69
2022/12/27 07:22:12;;;;;;;5.22;2.00;;;22.20;76.60;;;;;;6282449;27;89162;-69
2022/12/27 07:25:15;;;;;;;5.60;2.00;;;22.20;76.70;;;;;;6273014;27;89599;-70
2022/12/27 07:28:17;;;;;;;4.65;2.08;;;22.20;76.90;;;;;;6283321;27;89027;-69
2022/12/27 07:31:23;;;;;;;5.85;1.98;;;22.20;78.30;;;;;;6282681;27;88403;-70
2022/12/27 07:34:25;;;;;;;3.42;2.30;;;22.30;79.60;;;;;;6277714;27;89264;-68
2022/12/27 07:37:27;;;;;;;3.35;2.47;;;22.30;78.50;;;;;;6264252;27;89094;-69
2022/12/27 07:40:29;;;;;;;6.03;3.08;;;22.30;77.40;;;;;;6278273;27;89968;-69
2022/12/27 07:43:32;;;;;;;7.03;4.40;;;22.30;77.20;;;;;;6282343;27;89173;-70
2022/12/27 07:46:35;;;;;;;7.45;4.07;;;22.30;78.90;;;;;;6282190;27;88134;-70
2022/12/27 07:49:38;;;;;;;4.70;3.67;;;22.40;78.40;;;;;;6266462;27;89024;-72
2022/12/27 07:52:40;;;;;;;3.90;3.47;;;22.40;77.70;;;;;;6279232;27;89433;-70
2022/12/27 07:55:42;;;;;;;5.40;4.20;;;22.40;77.20;;;;;;6274973;27;89071;-70
2022/12/27 07:58:45;;;;;;;18.40;9.80;;;22.40;77.10;;;;;;6275379;27;89392;-71
2022/12/27 08:02:04;;;;;;;24.30;13.15;;;22.40;77.10;;;;;;6279269;27;88433;-71
2022/12/27 08:05:07;;;;;;;33.15;16.08;;;22.40;77.10;;;;;;6278603;27;89082;-71
2022/12/27 08:08:11;;;;;;;38.35;18.95;;;22.40;77.00;;;;;;6282030;27;89211;-72
2022/12/27 08:11:13;;;;;;;38.88;20.05;;;22.40;77.10;;;;;;6280614;27;88755;-71
2022/12/27 08:14:15;;;;;;;45.08;21.00;;;22.40;77.10;;;;;;6279868;27;89047;-71
2022/12/27 08:17:21;;;;;;;41.20;21.08;;;22.30;77.10;;;;;;6280334;27;87978;-72
2022/12/27 08:20:23;;;;;;;42.60;20.92;;;22.30;77.10;;;;;;6279347;27;89181;-72
2022/12/27 08:23:25;;;;;;;39.72;20.30;;;22.30;77.10;;;;;;6281306;27;89071;-71
2022/12/27 08:26:27;;;;;;;37.38;21.13;;;22.40;77.20;;;;;;6274004;27;89411;-71
2022/12/27 08:29:29;;;;;;;42.22;21.38;;;22.40;77.20;;;;;;6279761;27;88295;-70
2022/12/27 08:32:33;;;;;;;41.35;21.35;;;22.30;77.10;;;;;;6265785;27;88369;-71
2022/12/27 08:35:39;;;;;;;38.72;20.30;;;22.40;77.20;;;;;;6278564;27;89192;-72
2022/12/27 08:38:41;;;;;;;38.35;20.02;;;22.40;77.30;;;;;;6277909;27;89091;-73
2022/12/27 08:41:43;;;;;;;35.53;19.60;;;22.30;77.20;;;;;;6272452;27;90381;-72
2022/12/27 08:44:45;;;;;;;35.53;19.33;;;22.30;77.20;;;;;;6280159;27;89087;-73
2022/12/27 08:47:49;;;;;;;36.25;19.13;;;22.30;78.20;;;;;;6266586;27;89132;-69
2022/12/27 08:50:51;;;;;;;31.20;17.70;;;22.40;77.40;;;;;;6270266;27;89039;-71
2022/12/27 08:53:53;;;;;;;32.80;17.92;;;22.30;77.40;;;;;;6277480;27;89096;-69
2022/12/27 08:56:55;;;;;;;30.63;16.60;;;22.30;77.60;;;;;;6280296;27;87876;-69
2022/12/27 08:59:57;;;;;;;31.95;18.05;;;22.40;78.20;;;;;;6276752;27;89178;-70
2022/12/27 09:03:00;;;;;;;33.53;17.35;;;22.40;78.10;;;;;;6273631;27;88311;-69
2022/12/27 09:06:10;;;;;;;33.38;17.08;;;22.40;83.30;;;;;;6270672;27;89180;-71
2022/12/27 09:09:13;;;;;;;29.90;16.38;;;22.40;79.80;;;;;;6259015;27;89418;-69
2022/12/27 09:12:15;;;;;;;27.65;15.10;;;22.40;82.10;;;;;;6267725;27;89749;-70
2022/12/27 09:15:17;;;;;;;26.42;15.15;;;22.40;80.10;;;;;;6276605;27;89055;-69
2022/12/27 09:18:21;;;;;;;27.10;15.02;;;22.40;78.90;;;;;;6277147;27;89078;-70
2022/12/27 09:21:25;;;;;;;27.15;14.85;;;22.50;78.90;;;;;;6281154;27;89051;-70
2022/12/27 09:24:27;;;;;;;18.27;10.38;;;22.40;78.60;;;;;;6276478;27;89410;-71
2022/12/27 09:27:29;;;;;;;19.23;10.00;;;22.40;74.90;;;;;;6277241;27;88398;-70
2022/12/27 09:30:31;;;;;;;22.70;9.90;;;22.30;72.00;;;;;;6271707;27;89049;-70
2022/12/27 09:33:35;;;;;;;20.88;10.70;;;22.40;72.60;;;;;;6273709;27;87246;-70
2022/12/27 09:36:39;;;;;;;21.05;10.70;;;22.30;73.30;;;;;;6271907;27;89055;-70
2022/12/27 09:39:41;;;;;;;19.40;11.18;;;22.40;74.10;;;;;;6278323;27;89440;-70
2022/12/27 09:42:51;;;;;;;16.80;10.23;;;22.40;74.50;;;;;;6268530;27;90420;-70
2022/12/27 09:45:58;;;;;;;21.67;10.23;;;22.40;74.80;;;;;;6276296;27;89460;-71
2022/12/27 09:49:03;;;;;;;17.05;10.00;;;22.40;75.10;;;;;;6276061;27;89195;-71
2022/12/27 09:52:10;;;;;;;18.75;9.98;;;22.40;75.30;;;;;;6280248;27;89065;-69
2022/12/27 09:55:18;;;;;;;17.38;9.80;;;22.40;75.40;;;;;;6274596;27;89038;-70
2022/12/27 09:58:32;;;;;;;15.88;9.32;;;22.40;75.50;;;;;;6280185;27;89025;-70
2022/12/27 10:01:35;;;;;;;17.08;9.35;;;22.40;75.70;;;;;;6280070;27;89078;-70
2022/12/27 10:04:39;;;;;;;15.90;8.95;;;22.40;75.90;;;;;;6281355;27;88411;-70
2022/12/27 10:07:49;;;;;;;15.98;8.77;;;22.40;75.90;;;;;;6280782;27;88104;-70
2022/12/27 10:10:59;;;;;;;16.20;8.70;;;22.40;75.90;;;;;;6260165;27;89446;-70
2022/12/27 10:14:13;;;;;;;16.52;9.15;;;22.50;76.10;;;;;;6255311;27;90127;-70
2022/12/27 10:17:24;;;;;;;13.18;8.05;;;22.40;76.00;;;;;;6275277;27;89323;-70
2022/12/27 10:20:39;;;;;;;15.57;8.82;;;22.50;76.10;;;;;;6279950;27;89273;-71
2022/12/27 10:23:49;;;;;;;15.23;8.50;;;22.50;76.10;;;;;;6279836;27;89324;-70
2022/12/27 10:26:54;;;;;;;13.98;7.95;;;22.50;76.10;;;;;;6260362;27;89051;-70
2022/12/27 10:29:58;;;;;;;11.60;7.38;;;22.60;76.10;;;;;;6273403;27;89078;-70
2022/12/27 10:33:00;;;;;;;12.63;7.57;;;22.50;76.00;;;;;;6277228;27;89045;-70
2022/12/27 10:36:10;;;;;;;10.95;7.72;;;22.60;76.00;;;;;;6273503;27;88239;-70
2022/12/27 10:39:18;;;;;;;10.68;7.30;;;22.60;75.90;;;;;;6278060;27;88985;-71
2022/12/27 10:42:32;;;;;;;10.63;7.03;;;22.60;75.90;;;;;;6283214;27;89340;-71
2022/12/27 10:45:38;;;;;;;12.48;6.95;;;22.60;75.90;;;;;;6278477;27;90023;-70
2022/12/27 10:48:40;;;;;;;12.25;7.00;;;22.60;75.90;;;;;;6276561;27;89180;-70
2022/12/27 10:51:44;;;;;;;10.65;6.40;;;22.60;75.90;;;;;;6283806;27;89222;-70
2022/12/27 10:54:51;;;;;;;11.80;6.80;;;22.60;75.90;;;;;;6283068;27;89042;-70
2022/12/27 10:57:53;;;;;;;10.48;6.72;;;22.60;75.90;;;;;;6259581;27;89062;-71
2022/12/27 11:00:56;;;;;;;10.27;6.57;;;22.60;75.90;;;;;;6283948;27;87981;-71
2022/12/27 11:04:11;;;;;;;10.20;7.07;;;22.60;75.90;;;;;;6284413;27;89052;-70
2022/12/27 11:07:18;;;;;;;9.48;6.18;;;22.60;75.90;;;;;;6270685;27;88473;-71
2022/12/27 11:10:22;;;;;;;9.98;6.35;;;22.60;76.00;;;;;;6283747;27;89044;-71
2022/12/27 11:13:24;;;;;;;10.57;6.80;;;22.70;76.10;;;;;;6283144;27;89063;-70
2022/12/27 11:16:30;;;;;;;9.35;5.82;;;22.60;76.10;;;;;;6271389;27;90094;-71
2022/12/27 11:19:32;;;;;;;8.60;5.60;;;22.60;76.10;;;;;;6282864;27;87786;-71
2022/12/27 11:22:43;;;;;;;11.05;6.03;;;22.60;76.10;;;;;;6277458;27;89160;-71
2022/12/27 11:25:53;;;;;;;9.90;6.07;;;22.70;76.30;;;;;;6280171;27;89040;-71
2022/12/27 11:28:58;;;;;;;7.78;5.30;;;22.60;76.20;;;;;;6269946;27;89023;-71
2022/12/27 11:32:07;;;;;;;8.90;5.63;;;22.60;76.30;;;;;;6283854;27;89272;-71
2022/12/27 11:35:18;;;;;;;9.65;5.70;;;22.60;76.40;;;;;;6264288;27;89042;-71
2022/12/27 11:38:25;;;;;;;9.05;5.80;;;22.60;76.40;;;;;;6275513;27;88619;-71
2022/12/27 11:41:36;;;;;;;7.47;5.07;;;22.60;76.40;;;;;;6275310;27;89293;-70
2022/12/27 11:44:44;;;;;;;7.85;5.35;;;22.60;76.40;;;;;;6281621;27;89303;-70
2022/12/27 11:47:49;;;;;;;8.75;5.15;;;22.70;76.40;;;;;;6271421;27;89611;-70
2022/12/27 11:51:05;;;;;;;8.45;5.32;;;22.60;76.40;;;;;;6283165;27;89430;-70
2022/12/27 11:54:21;;;;;;;6.18;4.78;;;22.60;76.40;;;;;;6280397;27;89013;-70
2022/12/27 11:57:39;;;;;;;8.30;5.07;;;22.60;76.50;;;;;;6280139;27;89020;-71
2022/12/27 12:00:50;;;;;;;5.78;4.45;;;22.60;76.40;;;;;;6281414;27;89059;-69
2022/12/27 12:04:34;;;;;;;7.63;4.90;;;22.60;76.50;;;;;;6275085;27;87952;-70
2022/12/27 12:08:00;;;;;;;6.15;4.43;;;22.60;76.50;;;;;;6282897;27;89092;-70
2022/12/27 12:11:15;;;;;;;8.55;4.60;;;22.70;76.60;;;;;;6274767;27;88351;-70
2022/12/27 12:14:46;;;;;;;6.50;4.30;;;22.70;76.60;;;;;;6278942;27;89135;-71
2022/12/27 12:18:09;;;;;;;6.45;4.80;;;22.70;76.60;;;;;;6273214;27;90344;-71
2022/12/27 12:21:25;;;;;;;6.95;4.20;;;22.70;76.60;;;;;;6275015;27;91119;-69
2022/12/27 12:24:42;;;;;;;6.72;4.50;;;22.70;76.60;;;;;;6282107;27;88977;-70
2022/12/27 12:28:02;;;;;;;6.75;4.30;;;22.70;76.60;;;;;;6269314;27;88997;-70
2022/12/27 12:31:19;;;;;;;4.93;4.07;;;22.70;76.60;;;;;;6272784;27;89111;-70
2022/12/27 12:34:38;;;;;;;5.60;4.22;;;22.70;76.60;;;;;;6281465;27;89217;-70
2022/12/27 12:38:01;;;;;;;6.20;3.97;;;22.70;76.60;;;;;;6281726;27;89332;-71
2022/12/27 12:41:40;;;;;;;6.05;4.07;;;22.70;76.50;;;;;;6282524;27;90460;-70
2022/12/27 12:45:20;;;;;;;6.72;4.47;;;22.70;76.50;;;;;;6272839;27;88028;-70
2022/12/27 12:48:54;;;;;;;4.63;3.75;;;22.70;76.50;;;;;;6268685;27;89084;-70
2022/12/27 12:52:17;;;;;;;6.03;4.10;;;22.70;76.50;;;;;;6254733;27;89123;-70
2022/12/27 12:55:46;;;;;;;5.97;4.13;;;22.70;76.50;;;;;;6279884;27;90033;-70
2022/12/27 12:58:57;;;;;;;5.75;3.95;;;22.70;76.60;;;;;;6282023;27;89998;-71
2022/12/27 13:02:18;;;;;;;5.03;3.92;;;22.70;76.60;;;;;;6282174;27;89074;-70
2022/12/27 13:05:29;;;;;;;5.85;4.38;;;22.70;76.50;;;;;;6281325;27;89008;-70
2022/12/27 13:08:35;;;;;;;6.95;4.45;;;22.70;76.50;;;;;;6280376;27;89088;-70
2022/12/27 13:11:54;;;;;;;5.50;4.22;;;22.70;76.50;;;;;;6256918;27;88995;-71
2022/12/27 13:15:15;;;;;;;5.72;4.20;;;22.70;76.50;;;;;;6274079;27;89767;-71
2022/12/27 13:18:25;;;;;;;5.25;3.90;;;22.70;76.50;;;;;;6273198;27;88310;-71
2022/12/27 13:21:53;;;;;;;5.47;3.92;;;22.70;76.50;;;;;;6279884;27;89015;-70
2022/12/27 13:25:10;;;;;;;6.03;4.30;;;22.70;76.40;;;;;;6257115;27;87989;-70
2022/12/27 13:28:28;;;;;;;5.57;3.95;;;22.70;76.40;;;;;;6264063;27;90055;-70
2022/12/27 13:31:40;;;;;;;7.15;3.90;;;22.70;76.40;;;;;;6276757;27;89096;-70
2022/12/27 13:34:51;;;;;;;5.43;4.38;;;22.70;76.10;;;;;;6280610;27;89105;-70
2022/12/27 13:38:08;;;;;;;5.65;4.25;;;22.70;76.00;;;;;;6265196;27;89050;-71
2022/12/27 13:41:38;;;;;;;5.70;4.45;;;22.70;76.00;;;;;;6266813;27;89165;-69
2022/12/27 13:44:50;;;;;;;5.55;4.43;;;22.70;76.10;;;;;;6259691;27;89163;-69
2022/12/27 13:48:16;;;;;;;5.65;4.70;;;22.70;76.00;;;;;;6279796;27;89059;-68
2022/12/27 13:51:42;;;;;;;5.70;4.38;;;22.70;76.00;;;;;;6268227;27;88326;-68
2022/12/27 13:55:19;;;;;;;4.93;4.22;;;22.70;75.90;;;;;;6274478;27;89470;-68
2022/12/27 13:58:48;;;;;;;5.32;4.70;;;22.70;75.80;;;;;;6251347;27;89099;-71
2022/12/27 14:02:12;;;;;;;5.28;4.47;;;22.60;75.70;;;;;;6266757;27;90077;-70
2022/12/27 14:05:50;;;;;;;6.57;5.03;;;22.70;75.90;;;;;;6270606;27;89178;-70
2022/12/27 14:09:15;;;;;;;6.38;4.70;;;22.70;75.90;;;;;;6248535;27;89035;-71
2022/12/27 14:12:57;;;;;;;5.57;4.90;;;22.70;75.80;;;;;;6267589;27;88925;-71
2022/12/27 14:16:34;;;;;;;6.63;5.00;;;22.70;75.90;;;;;;6261008;27;89363;-70
2022/12/27 14:19:57;;;;;;;6.03;5.10;;;22.70;75.90;;;;;;6272376;27;89368;-70
2022/12/27 14:23:17;;;;;;;7.90;5.82;;;22.70;75.90;;;;;;6277097;27;89061;-69
2022/12/27 14:27:05;;;;;;;6.82;5.57;;;22.70;75.90;;;;;;6280153;27;88384;-70
2022/12/27 14:30:39;;;;;;;5.18;4.65;;;22.70;76.20;;;;;;6227515;27;89100;-70
2022/12/27 14:34:26;;;;;;;6.20;5.22;;;22.70;76.70;;;;;;6276105;27;87997;-70
2022/12/27 14:38:10;;;;;;;4.95;4.40;;;22.70;75.90;;;;;;6271385;27;90470;-70
2022/12/27 14:41:50;;;;;;;5.90;4.70;;;22.70;75.00;;;;;;6263578;27;87875;-71
2022/12/27 14:45:34;;;;;;;6.72;4.65;;;22.70;74.50;;;;;;6274924;27;89157;-71
2022/12/27 14:49:19;;;;;;;6.25;4.50;;;22.70;74.10;;;;;;6279265;27;89026;-70
2022/12/27 14:52:53;;;;;;;5.28;4.60;;;22.70;74.70;;;;;;6280788;27;89051;-71
2022/12/27 14:56:06;;;;;;;9.95;5.10;;;22.70;73.70;;;;;;6281408;27;89083;-70
2022/12/27 14:59:20;;;;;;;5.93;4.47;;;22.70;73.60;;;;;;6267329;27;89040;-70
2022/12/27 15:02:44;;;;;;;8.75;4.55;;;22.70;73.80;;;;;;6275356;27;88700;-69
2022/12/27 15:06:02;;;;;;;22.75;19.08;;;22.70;73.80;;;;;;6279564;27;89303;-69
2022/12/27 15:09:16;;;;;;;9.43;5.43;;;22.70;82.90;;;;;;6275470;27;89092;-69
2022/12/27 15:12:28;;;;;;;95.97;29.58;;;22.80;82.70;;;;;;6274126;27;90050;-70
2022/12/27 15:15:50;;;;;;;625.58;161.85;;;22.80;85.40;;;;;;6280045;27;87947;-66
2022/12/27 15:19:14;;;;;;;482.33;114.25;;;22.90;92.70;;;;;;6274751;27;88966;-68
2022/12/27 15:22:27;;;;;;;133.30;34.25;;;23.00;96.80;;;;;;6277018;27;87622;-68
2022/12/27 15:25:42;;;;;;;81.25;22.92;;;23.00;93.80;;;;;;6280183;27;90349;-72
2022/12/27 15:29:07;;;;;;;67.30;21.45;;;23.00;96.40;;;;;;6270294;27;89297;-71
2022/12/27 15:32:23;;;;;;;68.68;20.58;;;23.10;94.60;;;;;;6276016;27;89016;-72
2022/12/27 15:35:48;;;;;;;63.10;20.10;;;23.10;90.60;;;;;;6279780;27;87249;-69
2022/12/27 15:38:52;;;;;;;70.45;18.90;;;23.10;87.40;;;;;;6274528;27;89146;-70
2022/12/27 15:42:02;;;;;;;50.50;17.20;;;23.00;84.20;;;;;;6272954;27;89360;-71
2022/12/27 15:45:13;;;;;;;62.45;17.80;;;23.10;82.70;;;;;;6281436;27;90304;-70
2022/12/27 15:49:02;;;;;;;55.35;17.02;;;23.10;82.00;;;;;;6274268;27;89080;-70
2022/12/27 15:52:12;;;;;;;50.72;16.75;;;23.10;81.40;;;;;;6178000;27;89106;-70
2022/12/27 15:55:22;;;;;;;50.17;16.38;;;23.00;81.00;;;;;;6280288;27;88457;-70
2022/12/27 15:58:25;;;;;;;40.58;14.80;;;23.10;80.80;;;;;;6276324;27;89894;-69
2022/12/27 16:01:29;;;;;;;43.17;14.35;;;23.00;80.70;;;;;;6275453;27;89451;-69
2022/12/27 16:04:46;;;;;;;44.42;15.35;;;23.00;80.50;;;;;;6273082;27;89150;-69
2022/12/27 16:07:51;;;;;;;43.38;14.45;;;23.00;80.40;;;;;;6280592;27;88709;-70
2022/12/27 16:10:54;;;;;;;39.75;14.45;;;23.00;80.30;;;;;;6275845;27;89440;-69
2022/12/27 16:14:24;;;;;;;34.88;13.93;;;23.00;80.10;;;;;;6269549;27;87964;-69
2022/12/27 16:17:35;;;;;;;37.53;13.50;;;23.00;80.00;;;;;;6275501;27;90003;-69
2022/12/27 16:20:39;;;;;;;32.47;12.50;;;23.00;80.00;;;;;;6277483;27;88976;-69
2022/12/27 16:23:55;;;;;;;37.92;13.48;;;23.00;79.90;;;;;;6277238;27;89404;-68
2022/12/27 16:27:03;;;;;;;32.03;12.32;;;23.00;79.80;;;;;;6276765;27;89182;-68
2022/12/27 16:30:08;;;;;;;33.05;12.43;;;23.00;79.80;;;;;;6268909;27;89091;-69
2022/12/27 16:33:36;;;;;;;30.42;11.95;;;23.00;79.60;;;;;;6274065;27;89129;-70
2022/12/27 16:36:44;;;;;;;28.23;12.00;;;23.00;79.60;;;;;;6275554;27;89058;-69
2022/12/27 16:40:17;;;;;;;28.75;11.63;;;23.00;79.50;;;;;;6275363;27;88353;-70
2022/12/27 16:43:37;;;;;;;26.35;11.82;;;23.00;79.40;;;;;;6269452;27;89139;-69
2022/12/27 16:46:52;;;;;;;25.75;11.63;;;23.00;79.40;;;;;;6277488;27;89101;-70
2022/12/27 16:50:10;;;;;;;28.30;12.15;;;23.00;79.30;;;;;;6275423;27;88796;-71
2022/12/27 16:53:26;;;;;;;22.77;10.88;;;23.00;79.30;;;;;;6268348;27;89055;-70
2022/12/27 16:56:31;;;;;;;24.35;11.20;;;23.00;79.30;;;;;;6279403;27;90266;-69
2022/12/27 16:59:58;;;;;;;22.30;10.30;;;23.00;79.20;;;;;;6280353;27;89069;-69
2022/12/27 17:03:32;;;;;;;23.00;10.05;;;23.00;79.10;;;;;;6259950;27;89211;-69
2022/12/27 17:06:56;;;;;;;23.15;10.38;;;23.00;79.30;;;;;;6279845;27;89090;-69
2022/12/27 17:10:42;;;;;;;20.23;10.10;;;23.00;79.30;;;;;;6271710;27;88893;-69
2022/12/27 17:13:51;;;;;;;24.60;10.07;;;23.00;79.30;;;;;;6279296;27;88697;-70
2022/12/27 17:16:56;;;;;;;23.50;10.50;;;23.00;80.20;;;;;;6269596;27;89014;-70
2022/12/27 17:20:02;;;;;;;24.75;10.30;;;23.00;79.60;;;;;;6269532;27;89095;-70
2022/12/27 17:23:05;;;;;;;20.00;9.57;;;23.00;79.80;;;;;;6262114;27;90302;-70
2022/12/27 17:26:59;;;;;;;18.15;9.45;;;23.00;79.30;;;;;;6252926;27;89024;-71
2022/12/27 17:30:12;;;;;;;18.27;9.13;;;23.00;79.30;;;;;;6253329;27;90568;-69
2022/12/27 17:33:33;;;;;;;20.27;9.10;;;23.00;79.20;;;;;;6257885;27;89179;-69
2022/12/27 17:36:48;;;;;;;17.85;8.77;;;23.00;79.20;;;;;;6265933;27;89037;-69
2022/12/27 17:40:03;;;;;;;17.23;9.02;;;23.00;79.30;;;;;;6267319;27;89000;-69
2022/12/27 17:46:52;;;;;;;15.13;7.97;;;23.10;79.40;;;;;;6274143;27;86493;-69
2022/12/27 17:49:57;;;;;;;14.25;7.75;;;23.10;79.20;;;;;;6273659;27;88109;-69
2022/12/27 18:00:05;;;;;;;18.42;8.20;;;23.00;78.90;;;;;;6269217;27;88916;-68
2022/12/27 18:03:12;;;;;;;15.38;7.68;;;23.10;78.90;;;;;;6280174;27;89118;-68